Time,TemperatureF,DewpointF,PressureIn,WindDirection,WindDirectionDegrees,WindSpeedMPH,WindSpeedGustMPH,Humidity,HourlyPrecipIn,Conditions,Clouds,dailyrainin,SoftwareType,DateUTC
2013-04-23 00:02:00,37.0,37.0,-100.00,North,10,3.0,11.0,99,-99.99,,,-99.99,,2013-04-23 08:02:00,
2013-04-23 00:11:00,37.0,37.0,-100.00,North,10,3.0,11.0,99,-99.99,,,-99.99,,2013-04-23 08:11:00,
2013-04-23 00:21:00,37.0,37.0,-100.00,North,350,11.0,15.0,99,-99.99,,,-99.99,,2013-04-23 08:21:00,
2013-04-23 00:31:00,37.0,37.0,-100.00,North,350,11.0,15.0,99,-99.99,,,-99.99,,2013-04-23 08:31:00,
2013-04-23 00:42:00,37.0,37.0,-100.00,North,350,11.0,15.0,99,-99.99,,,-99.99,,2013-04-23 08:42:00,
2013-04-23 00:52:00,37.0,37.0,-100.00,North,355,9.0,15.0,99,-99.99,,,-99.99,,2013-04-23 08:52:00,
2013-04-23 01:01:00,37.0,37.0,-100.00,North,355,9.0,15.0,99,-99.99,,,-99.99,,2013-04-23 09:01:00,
2013-04-23 01:11:00,37.0,37.0,-100.00,North,355,9.0,15.0,99,-99.99,,,-99.99,,2013-04-23 09:11:00,
2013-04-23 01:21:00,38.0,37.0,-100.00,North,0,13.0,19.0,99,-99.99,,,-99.99,,2013-04-23 09:21:00,
2013-04-23 01:32:00,38.0,37.0,-100.00,North,0,13.0,19.0,99,-99.99,,,-99.99,,2013-04-23 09:32:00,
2013-04-23 01:42:00,38.0,37.0,-100.00,North,0,13.0,19.0,99,-99.99,,,-99.99,,2013-04-23 09:42:00,
2013-04-23 01:52:00,38.0,38.0,-100.00,NNW,345,11.0,17.0,99,-99.99,,,-99.99,,2013-04-23 09:52:00,
2013-04-23 02:02:00,38.0,38.0,-100.00,NNW,345,11.0,17.0,99,-99.99,,,-99.99,,2013-04-23 10:02:00,
2013-04-23 02:12:00,38.0,38.0,-100.00,NNW,345,11.0,17.0,99,-99.99,,,-99.99,,2013-04-23 10:12:00,
2013-04-23 02:22:00,38.0,38.0,-100.00,North,0,11.0,17.0,99,-99.99,,,-99.99,,2013-04-23 10:22:00,
2013-04-23 02:32:00,38.0,38.0,-100.00,North,0,11.0,17.0,99,-99.99,,,-99.99,,2013-04-23 10:32:00,
2013-04-23 02:42:00,38.0,38.0,-100.00,North,0,11.0,17.0,99,-99.99,,,-99.99,,2013-04-23 10:42:00,
2013-04-23 02:52:00,38.0,38.0,-100.00,North,350,10.0,17.0,99,-99.99,,,-99.99,,2013-04-23 10:52:00,
2013-04-23 03:02:00,38.0,38.0,-100.00,North,350,10.0,17.0,99,-99.99,,,-99.99,,2013-04-23 11:02:00,
2013-04-23 03:12:00,38.0,38.0,-100.00,North,350,10.0,17.0,99,-99.99,,,-99.99,,2013-04-23 11:12:00,
2013-04-23 03:21:00,38.0,38.0,-100.00,NNW,345,9.0,13.0,99,-99.99,,,-99.99,,2013-04-23 11:21:00,
2013-04-23 03:32:00,38.0,38.0,-100.00,NNW,345,9.0,13.0,99,-99.99,,,-99.99,,2013-04-23 11:32:00,
2013-04-23 03:42:00,38.0,38.0,-100.00,NNW,345,9.0,13.0,99,-99.99,,,-99.99,,2013-04-23 11:42:00,
2013-04-23 03:52:00,38.0,38.0,-100.00,North,350,8.0,12.0,99,-99.99,,,-99.99,,2013-04-23 11:52:00,
2013-04-23 04:02:00,38.0,38.0,-100.00,North,350,8.0,12.0,99,-99.99,,,-99.99,,2013-04-23 12:02:00,
2013-04-23 04:12:00,38.0,38.0,-100.00,North,350,8.0,12.0,99,-99.99,,,-99.99,,2013-04-23 12:12:00,
2013-04-23 04:22:00,38.0,38.0,-100.00,NNW,345,11.0,13.0,99,-99.99,,,-99.99,,2013-04-23 12:22:00,
2013-04-23 04:32:00,38.0,38.0,-100.00,NNW,345,11.0,13.0,99,-99.99,,,-99.99,,2013-04-23 12:32:00,
2013-04-23 04:41:00,38.0,38.0,-100.00,NNW,345,11.0,13.0,99,-99.99,,,-99.99,,2013-04-23 12:41:00,
2013-04-23 04:51:00,38.0,38.0,-100.00,North,350,10.0,13.0,99,-99.99,,,-99.99,,2013-04-23 12:51:00,
2013-04-23 05:01:00,38.0,38.0,-100.00,North,350,10.0,13.0,99,-99.99,,,-99.99,,2013-04-23 13:01:00,
2013-04-23 05:11:00,38.0,38.0,-100.00,North,350,10.0,13.0,99,-99.99,,,-99.99,,2013-04-23 13:11:00,
2013-04-23 05:21:00,38.0,38.0,-100.00,NNW,345,9.0,12.0,99,-99.99,,,-99.99,,2013-04-23 13:21:00,
2013-04-23 05:32:00,38.0,38.0,-100.00,NNW,345,9.0,12.0,99,-99.99,,,-99.99,,2013-04-23 13:32:00,
2013-04-23 05:41:00,38.0,38.0,-100.00,NNW,345,9.0,12.0,99,-99.99,,,-99.99,,2013-04-23 13:41:00,
2013-04-23 05:52:00,38.0,38.0,-100.00,NNW,345,9.0,10.0,99,-99.99,,,-99.99,,2013-04-23 13:52:00,
2013-04-23 06:01:00,38.0,38.0,-100.00,NNW,345,9.0,10.0,99,-99.99,,,-99.99,,2013-04-23 14:01:00,
2013-04-23 06:11:00,38.0,38.0,-100.00,NNW,345,9.0,10.0,99,-99.99,,,-99.99,,2013-04-23 14:11:00,
2013-04-23 06:22:00,38.0,38.0,-100.00,North,350,9.0,13.0,99,-99.99,,,-99.99,,2013-04-23 14:22:00,
2013-04-23 06:32:00,38.0,38.0,-100.00,North,350,9.0,13.0,99,-99.99,,,-99.99,,2013-04-23 14:32:00,
2013-04-23 06:42:00,38.0,38.0,-100.00,North,350,9.0,13.0,99,-99.99,,,-99.99,,2013-04-23 14:42:00,
2013-04-23 06:52:00,38.0,38.0,-100.00,North,350,7.0,11.0,99,-99.99,,,-99.99,,2013-04-23 14:52:00,
2013-04-23 07:01:00,38.0,38.0,-100.00,North,350,7.0,11.0,99,-99.99,,,-99.99,,2013-04-23 15:01:00,
2013-04-23 07:12:00,38.0,38.0,-100.00,North,350,7.0,11.0,99,-99.99,,,-99.99,,2013-04-23 15:12:00,
2013-04-23 07:21:00,38.0,38.0,-100.00,North,350,6.0,10.0,99,-99.99,,,-99.99,,2013-04-23 15:21:00,
2013-04-23 07:32:00,38.0,38.0,-100.00,North,350,6.0,10.0,99,-99.99,,,-99.99,,2013-04-23 15:32:00,
2013-04-23 07:42:00,38.0,38.0,-100.00,North,350,6.0,10.0,99,-99.99,,,-99.99,,2013-04-23 15:42:00,
2013-04-23 07:52:00,38.0,38.0,-100.00,North,350,9.0,14.0,99,-99.99,,,-99.99,,2013-04-23 15:52:00,
2013-04-23 08:02:00,38.0,38.0,-100.00,North,350,9.0,14.0,99,-99.99,,,-99.99,,2013-04-23 16:02:00,
2013-04-23 08:12:00,38.0,38.0,-100.00,North,350,9.0,14.0,99,-99.99,,,-99.99,,2013-04-23 16:12:00,
2013-04-23 08:23:00,38.0,38.0,-100.00,North,350,6.0,11.0,99,-99.99,,,-99.99,,2013-04-23 16:23:00,
2013-04-23 08:33:00,38.0,38.0,-100.00,North,350,6.0,11.0,99,-99.99,,,-99.99,,2013-04-23 16:33:00,
2013-04-23 08:42:00,38.0,38.0,-100.00,North,350,6.0,11.0,99,-99.99,,,-99.99,,2013-04-23 16:42:00,
2013-04-23 08:52:00,38.0,38.0,-100.00,North,350,6.0,10.0,99,-99.99,,,-99.99,,2013-04-23 16:52:00,
2013-04-23 09:02:00,38.0,38.0,-100.00,North,350,6.0,10.0,99,-99.99,,,-99.99,,2013-04-23 17:02:00,
2013-04-23 09:11:00,38.0,38.0,-100.00,North,350,6.0,10.0,99,-99.99,,,-99.99,,2013-04-23 17:11:00,
2013-04-23 09:22:00,38.0,38.0,-100.00,North,350,7.0,11.0,99,-99.99,,,-99.99,,2013-04-23 17:22:00,
2013-04-23 09:32:00,38.0,38.0,-100.00,North,350,7.0,11.0,99,-99.99,,,-99.99,,2013-04-23 17:32:00,
2013-04-23 09:42:00,38.0,38.0,-100.00,North,350,7.0,11.0,99,-99.99,,,-99.99,,2013-04-23 17:42:00,
2013-04-23 09:53:00,38.0,38.0,-100.00,North,5,6.0,10.0,99,-99.99,,,-99.99,,2013-04-23 17:53:00,
2013-04-23 10:02:00,38.0,38.0,-100.00,North,5,6.0,10.0,99,-99.99,,,-99.99,,2013-04-23 18:02:00,
2013-04-23 10:12:00,38.0,38.0,-100.00,North,5,6.0,10.0,99,-99.99,,,-99.99,,2013-04-23 18:12:00,
2013-04-23 10:22:00,38.0,38.0,-100.00,North,5,9.0,14.0,99,-99.99,,,-99.99,,2013-04-23 18:22:00,
2013-04-23 10:32:00,38.0,38.0,-100.00,North,5,9.0,14.0,99,-99.99,,,-99.99,,2013-04-23 18:32:00,
2013-04-23 10:42:00,38.0,38.0,-100.00,North,5,9.0,14.0,99,-99.99,,,-99.99,,2013-04-23 18:42:00,
2013-04-23 10:52:00,38.0,38.0,-100.00,North,0,8.0,13.0,99,-99.99,,,-99.99,,2013-04-23 18:52:00,
2013-04-23 11:02:00,38.0,38.0,-100.00,North,0,8.0,13.0,99,-99.99,,,-99.99,,2013-04-23 19:02:00,
2013-04-23 11:11:00,38.0,38.0,-100.00,North,0,8.0,13.0,99,-99.99,,,-99.99,,2013-04-23 19:11:00,
2013-04-23 11:21:00,39.0,39.0,-100.00,NNW,340,6.0,12.0,99,-99.99,,,-99.99,,2013-04-23 19:21:00,
2013-04-23 11:32:00,39.0,39.0,-100.00,NNW,340,6.0,12.0,99,-99.99,,,-99.99,,2013-04-23 19:32:00,
2013-04-23 11:42:00,39.0,39.0,-100.00,NNW,340,6.0,12.0,99,-99.99,,,-99.99,,2013-04-23 19:42:00,
2013-04-23 11:52:00,39.0,39.0,-100.00,North,0,7.0,10.0,99,-99.99,,,-99.99,,2013-04-23 19:52:00,
2013-04-23 12:01:00,39.0,39.0,-100.00,North,0,7.0,10.0,99,-99.99,,,-99.99,,2013-04-23 20:01:00,
2013-04-23 12:11:00,39.0,39.0,-100.00,North,0,7.0,10.0,99,-99.99,,,-99.99,,2013-04-23 20:11:00,
2013-04-23 12:21:00,39.0,39.0,-100.00,North,355,8.0,11.0,99,-99.99,,,-99.99,,2013-04-23 20:21:00,
2013-04-23 12:31:00,39.0,39.0,-100.00,North,355,8.0,11.0,99,-99.99,,,-99.99,,2013-04-23 20:31:00,
2013-04-23 12:42:00,39.0,39.0,-100.00,North,355,8.0,11.0,99,-99.99,,,-99.99,,2013-04-23 20:42:00,
2013-04-23 12:51:00,39.0,39.0,-100.00,North,0,9.0,13.0,99,-99.99,,,-99.99,,2013-04-23 20:51:00,
2013-04-23 13:01:00,39.0,39.0,-100.00,North,0,9.0,13.0,99,-99.99,,,-99.99,,2013-04-23 21:01:00,
2013-04-23 13:11:00,39.0,39.0,-100.00,North,0,9.0,13.0,99,-99.99,,,-99.99,,2013-04-23 21:11:00,
2013-04-23 13:21:00,40.0,40.0,-100.00,North,350,7.0,12.0,99,-99.99,,,-99.99,,2013-04-23 21:21:00,
2013-04-23 13:32:00,40.0,40.0,-100.00,North,350,7.0,12.0,99,-99.99,,,-99.99,,2013-04-23 21:32:00,
2013-04-23 13:43:00,40.0,40.0,-100.00,North,350,7.0,12.0,99,-99.99,,,-99.99,,2013-04-23 21:43:00,
2013-04-23 13:50:00,41.0,40.0,-100.00,NNE,15,7.0,12.0,98,-99.99,,,-99.99,,2013-04-23 21:50:00,
2013-04-23 13:52:00,40.0,40.0,-100.00,North,10,9.0,12.0,99,-99.99,,,-99.99,,2013-04-23 21:52:00,
2013-04-23 14:03:00,40.0,40.0,-100.00,North,10,9.0,12.0,99,-99.99,,,-99.99,,2013-04-23 22:03:00,
2013-04-23 14:12:00,40.0,40.0,-100.00,North,10,9.0,12.0,99,-99.99,,,-99.99,,2013-04-23 22:12:00,
2013-04-23 14:22:00,41.0,40.0,-100.00,NNE,15,7.0,12.0,98,-99.99,,,-99.99,,2013-04-23 22:22:00,
2013-04-23 14:33:00,41.0,40.0,-100.00,NNE,15,7.0,12.0,98,-99.99,,,-99.99,,2013-04-23 22:33:00,
2013-04-23 14:42:00,41.0,40.0,-100.00,NNE,15,7.0,12.0,98,-99.99,,,-99.99,,2013-04-23 22:42:00,
2013-04-23 15:22:00,42.0,40.0,-100.00,North,5,11.0,17.0,92,-99.99,,,-99.99,,2013-04-23 23:22:00,
2013-04-23 15:32:00,42.0,40.0,-100.00,North,5,11.0,17.0,92,-99.99,,,-99.99,,2013-04-23 23:32:00,
2013-04-23 15:42:00,42.0,40.0,-100.00,North,5,11.0,17.0,92,-99.99,,,-99.99,,2013-04-23 23:42:00,
2013-04-23 15:52:00,42.0,40.0,-100.00,NNE,15,8.0,16.0,89,-99.99,,,-99.99,,2013-04-23 23:52:00,
2013-04-23 16:01:00,42.0,40.0,-100.00,NNE,15,8.0,16.0,89,-99.99,,,-99.99,,2013-04-24 00:01:00,
2013-04-23 16:11:00,42.0,40.0,-100.00,NNE,15,8.0,16.0,89,-99.99,,,-99.99,,2013-04-24 00:11:00,
2013-04-23 16:21:00,42.0,40.0,-100.00,North,0,9.0,13.0,89,-99.99,,,-99.99,,2013-04-24 00:21:00,
2013-04-23 16:32:00,42.0,40.0,-100.00,North,0,9.0,13.0,89,-99.99,,,-99.99,,2013-04-24 00:32:00,
2013-04-23 16:41:00,42.0,40.0,-100.00,North,0,9.0,13.0,89,-99.99,,,-99.99,,2013-04-24 00:41:00,
2013-04-23 16:51:00,42.0,40.0,-100.00,NNE,15,9.0,13.0,90,-99.99,,,-99.99,,2013-04-24 00:51:00,
2013-04-23 17:01:00,42.0,40.0,-100.00,NNE,15,9.0,13.0,90,-99.99,,,-99.99,,2013-04-24 01:01:00,
2013-04-23 17:11:00,42.0,40.0,-100.00,NNE,15,9.0,13.0,90,-99.99,,,-99.99,,2013-04-24 01:11:00,
2013-04-23 17:21:00,40.0,39.0,-100.00,North,10,7.0,15.0,94,-99.99,,,-99.99,,2013-04-24 01:21:00,
2013-04-23 17:32:00,40.0,39.0,-100.00,North,10,7.0,15.0,94,-99.99,,,-99.99,,2013-04-24 01:32:00,
2013-04-23 17:42:00,40.0,39.0,-100.00,North,10,7.0,15.0,94,-99.99,,,-99.99,,2013-04-24 01:42:00,
2013-04-23 17:52:00,40.0,39.0,-100.00,North,0,7.0,12.0,95,-99.99,,,-99.99,,2013-04-24 01:52:00,
2013-04-23 18:02:00,40.0,39.0,-100.00,North,0,7.0,12.0,95,-99.99,,,-99.99,,2013-04-24 02:02:00,
2013-04-23 18:14:00,40.0,39.0,-100.00,North,0,7.0,12.0,95,-99.99,,,-99.99,,2013-04-24 02:14:00,
2013-04-23 18:24:00,40.0,39.0,-100.00,North,0,9.0,18.0,95,-99.99,,,-99.99,,2013-04-24 02:24:00,
2013-04-23 18:36:00,40.0,39.0,-100.00,North,0,9.0,18.0,95,-99.99,,,-99.99,,2013-04-24 02:36:00,
2013-04-23 18:46:00,40.0,39.0,-100.00,North,0,9.0,18.0,95,-99.99,,,-99.99,,2013-04-24 02:46:00,
2013-04-23 18:54:00,40.0,39.0,-100.00,North,5,7.0,12.0,96,-99.99,,,-99.99,,2013-04-24 02:54:00,
2013-04-23 19:05:00,40.0,39.0,-100.00,North,5,7.0,12.0,96,-99.99,,,-99.99,,2013-04-24 03:05:00,
2013-04-23 19:14:00,40.0,39.0,-100.00,North,5,7.0,12.0,96,-99.99,,,-99.99,,2013-04-24 03:14:00,
2013-04-23 19:47:00,39.0,38.0,-100.00,North,5,7.0,12.0,97,-99.99,,,-99.99,,2013-04-24 03:47:00,
2013-04-23 19:54:00,39.0,38.0,-100.00,North,5,8.0,13.0,97,-99.99,,,-99.99,,2013-04-24 03:54:00,
2013-04-23 20:03:00,39.0,38.0,-100.00,North,5,8.0,13.0,97,-99.99,,,-99.99,,2013-04-24 04:03:00,
2013-04-23 20:12:00,39.0,38.0,-100.00,North,5,8.0,13.0,97,-99.99,,,-99.99,,2013-04-24 04:12:00,
2013-04-23 20:22:00,38.0,38.0,-100.00,North,0,6.0,11.0,97,-99.99,,,-99.99,,2013-04-24 04:22:00,
2013-04-23 20:33:00,38.0,38.0,-100.00,North,0,6.0,11.0,97,-99.99,,,-99.99,,2013-04-24 04:33:00,
2013-04-23 20:43:00,38.0,38.0,-100.00,North,0,6.0,11.0,97,-99.99,,,-99.99,,2013-04-24 04:43:00,
2013-04-23 20:52:00,38.0,38.0,-100.00,North,10,6.0,10.0,97,-99.99,,,-99.99,,2013-04-24 04:52:00,
2013-04-23 21:02:00,38.0,38.0,-100.00,North,10,6.0,10.0,97,-99.99,,,-99.99,,2013-04-24 05:02:00,
2013-04-23 21:12:00,38.0,38.0,-100.00,North,10,6.0,10.0,97,-99.99,,,-99.99,,2013-04-24 05:12:00,
2013-04-23 21:21:00,38.0,37.0,-100.00,North,10,4.0,11.0,97,-99.99,,,-99.99,,2013-04-24 05:21:00,
2013-04-23 21:32:00,38.0,37.0,-100.00,North,10,4.0,11.0,97,-99.99,,,-99.99,,2013-04-24 05:32:00,
2013-04-23 21:42:00,38.0,37.0,-100.00,North,10,4.0,11.0,97,-99.99,,,-99.99,,2013-04-24 05:42:00,
2013-04-23 21:51:00,38.0,37.0,-100.00,North,0,7.0,12.0,96,-99.99,,,-99.99,,2013-04-24 05:51:00,
2013-04-23 22:02:00,38.0,37.0,-100.00,North,0,7.0,12.0,96,-99.99,,,-99.99,,2013-04-24 06:02:00,
2013-04-23 22:11:00,38.0,37.0,-100.00,North,0,7.0,12.0,96,-99.99,,,-99.99,,2013-04-24 06:11:00,
2013-04-23 22:21:00,38.0,37.0,-100.00,NNE,20,7.0,11.0,94,-99.99,,,-99.99,,2013-04-24 06:21:00,
2013-04-23 22:32:00,38.0,37.0,-100.00,NNE,20,7.0,11.0,94,-99.99,,,-99.99,,2013-04-24 06:32:00,
2013-04-23 22:42:00,38.0,37.0,-100.00,NNE,20,7.0,11.0,94,-99.99,,,-99.99,,2013-04-24 06:42:00,
2013-04-23 22:50:00,38.0,36.0,-100.00,North,0,10.0,16.0,95,-99.99,,,-99.99,,2013-04-24 06:50:00,
2013-04-23 22:51:00,38.0,36.0,-100.00,North,5,6.0,12.0,94,-99.99,,,-99.99,,2013-04-24 06:51:00,
2013-04-23 23:02:00,38.0,36.0,-100.00,North,5,6.0,12.0,94,-99.99,,,-99.99,,2013-04-24 07:02:00,
2013-04-23 23:11:00,38.0,36.0,-100.00,North,5,6.0,12.0,94,-99.99,,,-99.99,,2013-04-24 07:11:00,
2013-04-23 23:21:00,38.0,36.0,-100.00,North,0,10.0,16.0,95,-99.99,,,-99.99,,2013-04-24 07:21:00,
2013-04-23 23:32:00,38.0,36.0,-100.00,North,0,10.0,16.0,95,-99.99,,,-99.99,,2013-04-24 07:32:00,
2013-04-23 23:41:00,38.0,36.0,-100.00,North,0,10.0,16.0,95,-99.99,,,-99.99,,2013-04-24 07:41:00,